map of DEC home
DEC - Airport
Location
City:  Decatur, Illinois, United States
ICAO:KDEC
IATA:DEC
FAA LID:DEC

Details
Type:Airport (Part 139 Class II)
Use:Public/Civil
Latitude:3950'04"N (39.834562)
Longitude:8851'56"W (-88.865688)
Datum:WGS 1984
Elevation:681 ft (208 m)
Variation:2.68W (WMM2015 magnetic declination)
-0.07 annual change
Runways:3
Longest:8496 × 150 ft (2590 × 45.5 m), paved

Time
Time Zone:UTC-6 (DST-5)
Local Time:

Weather
METAR:KDEC 161954Z 21014KT 10SM CLR 12/M02 A2992 RMK AO2 SLP132 T01221017 $
TAF:KDEC 162034Z 1621/1718 21014G22KT P6SM FEW250
FM162200 19009KT P6SM SCT250
FM170800 18007KT P6SM SCT120 BKN200
FM171500 20008KT P6SM -RA OVC050

Related Locations
Nearby:
Farthest:MQZ: 11058 mi / 17796 km
Margaret River [Margaret River Airport], WA, AU

Find:

   beyond  
but within

Other Information
Maps:
Delays:
NOTAMs:
Links:
Sources:

  
flag of United States
flag of Illinois
  

Airport Diagram

Airport diagram for DEC

Airport diagram PDF

Sectional Chart

Flight Planning
at skyvector.com

Satellite Image

Google Maps Satellite view

 

Copyright © 2004-2017 Karl L. Swartz. All rights reserved.
The Great Circle Mapper name and logo are trademarks of the Great Circle Mapper.
All other trademarks mentioned herein belong to their respective owners.
Please see credits for attibutions and further copyright information.

  Follow gcmap on Facebook Follow gcmap on Twitter Follow gcmap on Google+ GCmap on LinkedIn

hCard Microformat

Geo Microformat